Time;durP1;ratioP1;P1;durP2;ratioP2;P2;SDS_P1;SDS_P2;PMS_P1;PMS_P2;Temp;Humidity;BMP_temperature;BMP_pressure;BME280_temperature;BME280_humidity;BME280_pressure;Samples;Min_cycle;Max_cycle;Signal;HPM_P1;HPM_P2
2022/06/17 00:03:28;;;;;;;17.95;8.77;;;;;;;;;;8485942;27;20043;-91
2022/06/17 00:07:32;;;;;;;13.65;9.05;;;;;;;;;;8484287;27;20055;-90
2022/06/17 00:11:37;;;;;;;12.48;9.10;;;;;;;;;;8466742;27;20513;-91
2022/06/17 00:15:40;;;;;;;13.23;9.00;;;;;;;;;;8472383;27;20043;-91
2022/06/17 00:19:43;;;;;;;12.60;8.88;;;;;;;;;;8478355;27;20047;-90
2022/06/17 00:23:47;;;;;;;13.35;9.63;;;;;;;;;;8485122;27;20039;-91
2022/06/17 00:27:50;;;;;;;13.15;8.73;;;;;;;;;;8490393;27;20051;-90
2022/06/17 00:31:53;;;;;;;12.82;8.57;;;;;;;;;;8480705;27;20035;-91
2022/06/17 00:35:56;;;;;;;11.77;9.13;;;;;;;;;;8474388;27;20046;-91
2022/06/17 00:40:01;;;;;;;15.63;8.70;;;;;;;;;;8488698;27;20096;-92
2022/06/17 00:44:19;;;;;;;12.68;8.18;;;;;;;;;;8485449;27;20478;-91
2022/06/17 00:48:26;;;;;;;11.00;8.43;;;;;;;;;;8490578;27;20393;-90
2022/06/17 00:52:35;;;;;;;12.45;7.75;;;;;;;;;;8476108;27;20047;-91
2022/06/17 00:56:40;;;;;;;10.95;7.30;;;;;;;;;;8476176;27;20380;-90
2022/06/17 01:00:43;;;;;;;11.07;8.13;;;;;;;;;;8482243;27;20482;-90
2022/06/17 01:04:49;;;;;;;11.45;8.23;;;;;;;;;;8483266;27;20483;-91
2022/06/17 01:13:16;;;;;;;12.30;8.90;;;;;;;;;;8452866;28;20075;-93
2022/06/17 01:17:19;;;;;;;14.95;10.00;;;;;;;;;;8497767;28;20047;-92
2022/06/17 01:21:29;;;;;;;17.55;9.90;;;;;;;;;;8495568;28;20043;-90
2022/06/17 01:25:37;;;;;;;13.70;9.40;;;;;;;;;;8495638;28;20407;-91
2022/06/17 01:29:40;;;;;;;16.48;9.25;;;;;;;;;;8489996;28;20058;-89
2022/06/17 01:33:44;;;;;;;18.17;10.02;;;;;;;;;;8496472;28;20047;-93
2022/06/17 01:37:47;;;;;;;17.48;10.18;;;;;;;;;;8489355;28;20152;-92
2022/06/17 01:41:52;;;;;;;21.80;10.85;;;;;;;;;;8487473;28;20040;-93
2022/06/17 01:46:03;;;;;;;16.02;10.77;;;;;;;;;;8487620;28;20051;-90
2022/06/17 01:50:08;;;;;;;18.92;11.20;;;;;;;;;;8493550;28;20100;-92
2022/06/17 01:54:15;;;;;;;20.50;11.38;;;;;;;;;;8483765;28;20498;-91
2022/06/17 01:58:27;;;;;;;24.25;12.32;;;;;;;;;;8484911;28;20501;-92
2022/06/17 02:02:31;;;;;;;21.95;12.70;;;;;;;;;;8494859;28;20035;-93
2022/06/17 02:06:39;;;;;;;21.00;11.50;;;;;;;;;;8484958;27;20108;-93
2022/06/17 02:10:44;;;;;;;20.52;12.25;;;;;;;;;;8493747;27;20140;-93
2022/06/17 02:14:49;;;;;;;22.60;13.73;;;;;;;;;;8501114;27;20471;-92
2022/06/17 02:18:54;;;;;;;28.40;14.50;;;;;;;;;;8494867;27;20371;-93
2022/06/17 02:22:58;;;;;;;37.35;15.45;;;;;;;;;;8489664;27;20044;-92
2022/06/17 02:27:05;;;;;;;43.03;17.38;;;;;;;;;;8486894;27;20976;-94
2022/06/17 02:31:10;;;;;;;38.40;16.17;;;;;;;;;;8494696;27;20039;-92
2022/06/17 02:35:18;;;;;;;30.45;14.45;;;;;;;;;;8484554;27;20066;-92
2022/06/17 02:39:21;;;;;;;33.20;14.73;;;;;;;;;;8499512;27;20051;-92
2022/06/17 02:43:28;;;;;;;39.45;13.57;;;;;;;;;;8498716;27;20043;-95
2022/06/17 02:47:33;;;;;;;27.58;13.30;;;;;;;;;;8490028;27;20039;-94
2022/06/17 02:51:40;;;;;;;39.10;12.98;;;;;;;;;;8496715;27;20061;-94
2022/06/17 02:55:44;;;;;;;37.47;12.57;;;;;;;;;;8492304;27;20039;-93
2022/06/17 02:59:51;;;;;;;31.95;13.05;;;;;;;;;;8499720;27;20391;-93
2022/06/17 03:03:56;;;;;;;53.85;11.70;;;;;;;;;;8482951;27;20040;-94
2022/06/17 03:08:01;;;;;;;42.58;12.38;;;;;;;;;;8492776;27;20046;-93
2022/06/17 03:12:08;;;;;;;30.38;11.75;;;;;;;;;;8482549;27;20498;-93
2022/06/17 03:16:13;;;;;;;51.53;11.52;;;;;;;;;;8489144;27;20494;-95
2022/06/17 03:20:23;;;;;;;42.45;11.35;;;;;;;;;;8484737;27;20482;-94
2022/06/17 03:24:32;;;;;;;79.43;12.30;;;;;;;;;;8487128;27;20038;-95
2022/06/17 03:28:39;;;;;;;24.35;12.20;;;;;;;;;;8486856;27;20059;-92
2022/06/17 03:32:46;;;;;;;33.75;11.73;;;;;;;;;;8474524;27;20514;-93
2022/06/17 03:36:53;;;;;;;36.70;11.60;;;;;;;;;;8476182;27;20042;-93
2022/06/17 03:41:02;;;;;;;32.42;11.25;;;;;;;;;;8498989;27;20467;-93
2022/06/17 03:45:11;;;;;;;25.10;12.15;;;;;;;;;;8480367;27;20035;-92
2022/06/17 03:49:18;;;;;;;32.63;10.88;;;;;;;;;;8490976;27;20099;-93
2022/06/17 03:53:26;;;;;;;24.05;11.38;;;;;;;;;;8486783;27;20388;-92
2022/06/17 03:57:32;;;;;;;24.88;10.40;;;;;;;;;;8481811;27;20046;-95
2022/06/17 04:01:40;;;;;;;17.13;10.23;;;;;;;;;;8497963;27;20287;-92
2022/06/17 04:05:45;;;;;;;39.88;10.15;;;;;;;;;;8492311;27;20049;-92
2022/06/17 04:09:52;;;;;;;27.83;10.88;;;;;;;;;;8496541;27;20042;-93
2022/06/17 04:13:57;;;;;;;29.88;10.48;;;;;;;;;;8494266;27;20039;-94
2022/06/17 04:18:00;;;;;;;22.30;10.02;;;;;;;;;;8486578;27;20039;-93
2022/06/17 04:22:07;;;;;;;17.70;8.98;;;;;;;;;;8488519;27;20039;-94
2022/06/17 04:26:17;;;;;;;13.52;9.05;;;;;;;;;;8482379;27;20051;-94
2022/06/17 04:30:24;;;;;;;13.23;9.17;;;;;;;;;;8489180;27;20047;-95
2022/06/17 04:34:26;;;;;;;14.85;9.57;;;;;;;;;;8497163;27;20043;-93
2022/06/17 04:38:32;;;;;;;12.77;9.98;;;;;;;;;;8469258;27;20096;-94
2022/06/17 04:42:40;;;;;;;11.30;8.80;;;;;;;;;;8497221;27;20070;-93
2022/06/17 04:46:49;;;;;;;11.90;8.80;;;;;;;;;;8484819;27;20047;-94
2022/06/17 04:50:52;;;;;;;10.05;8.50;;;;;;;;;;8483301;27;20380;-95
2022/06/17 04:54:57;;;;;;;9.73;7.60;;;;;;;;;;8480100;27;20491;-94
2022/06/17 04:59:16;;;;;;;10.27;8.10;;;;;;;;;;8492755;27;20546;-95
2022/06/17 05:03:19;;;;;;;8.73;7.30;;;;;;;;;;8472737;27;20465;-93
2022/06/17 05:07:21;;;;;;;8.70;7.40;;;;;;;;;;8486171;27;20074;-93
2022/06/17 05:11:31;;;;;;;10.23;7.20;;;;;;;;;;8496688;28;20050;-93
2022/06/17 05:15:37;;;;;;;9.55;7.40;;;;;;;;;;8492344;28;20036;-93
2022/06/17 05:19:40;;;;;;;10.93;7.45;;;;;;;;;;8484385;28;20050;-96
2022/06/17 05:23:43;;;;;;;10.30;7.65;;;;;;;;;;8497990;28;20046;-89
2022/06/17 05:27:48;;;;;;;12.32;7.80;;;;;;;;;;8484082;28;20506;-93
2022/06/17 05:31:52;;;;;;;8.70;7.32;;;;;;;;;;8483059;28;20046;-91
2022/06/17 05:35:56;;;;;;;10.95;7.47;;;;;;;;;;8492091;28;20078;-92
2022/06/17 05:39:59;;;;;;;10.50;7.60;;;;;;;;;;8481461;28;20490;-90
2022/06/17 05:44:08;;;;;;;9.95;6.88;;;;;;;;;;8502982;27;20074;-91
2022/06/17 05:48:15;;;;;;;10.60;7.03;;;;;;;;;;8482228;27;20091;-90
2022/06/17 05:52:21;;;;;;;12.68;6.68;;;;;;;;;;8489716;27;20479;-90
2022/06/17 05:56:29;;;;;;;11.70;7.18;;;;;;;;;;8484310;27;20039;-90
2022/06/17 06:00:34;;;;;;;12.70;9.02;;;;;;;;;;8485075;27;20044;-90
2022/06/17 06:04:43;;;;;;;9.18;7.38;;;;;;;;;;8491830;27;20039;-90
2022/06/17 06:08:47;;;;;;;11.23;6.88;;;;;;;;;;8493103;27;20048;-93
2022/06/17 06:13:02;;;;;;;8.05;5.47;;;;;;;;;;8498863;27;20092;-91
2022/06/17 06:17:10;;;;;;;8.63;5.95;;;;;;;;;;8472079;27;20118;-91
2022/06/17 06:21:20;;;;;;;9.13;5.18;;;;;;;;;;8478963;27;20043;-90
2022/06/17 06:25:42;;;;;;;6.75;5.38;;;;;;;;;;8495583;27;20472;-92
2022/06/17 06:29:48;;;;;;;8.02;4.70;;;;;;;;;;8490600;27;20044;-88
2022/06/17 06:33:53;;;;;;;9.27;4.00;;;;;;;;;;8488485;27;20047;-91
2022/06/17 06:38:03;;;;;;;6.38;3.90;;;;;;;;;;8485266;27;20043;-89
2022/06/17 06:42:08;;;;;;;9.85;3.75;;;;;;;;;;8489418;27;20042;-91
2022/06/17 06:46:15;;;;;;;3.20;2.13;;;;;;;;;;8494875;27;20043;-91
2022/06/17 06:50:25;;;;;;;3.97;2.22;;;;;;;;;;8487300;27;20527;-90
2022/06/17 06:54:30;;;;;;;3.40;1.90;;;;;;;;;;8483719;27;20550;-92
2022/06/17 06:58:33;;;;;;;5.57;2.22;;;;;;;;;;8498024;27;20051;-90
2022/06/17 07:02:37;;;;;;;4.07;2.08;;;;;;;;;;8497360;27;20047;-90
2022/06/17 07:06:41;;;;;;;3.28;2.00;;;;;;;;;;8487645;27;20394;-90
2022/06/17 07:10:47;;;;;;;3.35;1.77;;;;;;;;;;8471199;27;20039;-90
2022/06/17 07:14:50;;;;;;;4.20;1.70;;;;;;;;;;8493588;27;20043;-86
2022/06/17 07:18:53;;;;;;;5.43;1.80;;;;;;;;;;8479054;27;20093;-88
2022/06/17 07:22:59;;;;;;;4.18;1.80;;;;;;;;;;8482926;27;20150;-93
2022/06/17 07:27:05;;;;;;;2.80;1.63;;;;;;;;;;8489015;27;20059;-90
2022/06/17 07:31:12;;;;;;;5.38;1.85;;;;;;;;;;8490361;27;20043;-88
2022/06/17 07:35:16;;;;;;;5.45;2.00;;;;;;;;;;8484098;27;20066;-91
2022/06/17 07:43:43;;;;;;;4.15;2.00;;;;;;;;;;8483383;27;20035;-88
2022/06/17 07:47:49;;;;;;;2.70;1.90;;;;;;;;;;8483067;27;20035;-89
2022/06/17 07:51:53;;;;;;;2.72;2.03;;;;;;;;;;8479166;27;20031;-90
2022/06/17 07:55:57;;;;;;;3.30;2.08;;;;;;;;;;8490915;27;20046;-90
2022/06/17 08:00:01;;;;;;;5.30;2.20;;;;;;;;;;8485041;27;20043;-90
2022/06/17 08:04:05;;;;;;;3.40;2.00;;;;;;;;;;8488049;27;20123;-91
2022/06/17 08:08:08;;;;;;;4.10;2.13;;;;;;;;;;8486201;27;20039;-89
2022/06/17 08:12:13;;;;;;;2.72;1.98;;;;;;;;;;8471876;27;20517;-86
2022/06/17 08:16:18;;;;;;;4.32;2.00;;;;;;;;;;8495980;27;20043;-87
2022/06/17 08:20:25;;;;;;;6.10;2.53;;;;;;;;;;8495897;27;20047;-90
2022/06/17 08:24:27;;;;;;;4.68;2.40;;;;;;;;;;8493632;27;20069;-90
2022/06/17 08:28:31;;;;;;;4.22;2.40;;;;;;;;;;8498059;27;20107;-86
2022/06/17 08:32:51;;;;;;;3.65;2.30;;;;;;;;;;8497601;27;20063;-89
2022/06/17 08:36:54;;;;;;;5.17;2.63;;;;;;;;;;8487791;27;20040;-89
2022/06/17 08:41:08;;;;;;;3.35;2.40;;;;;;;;;;8496698;27;20035;-91
2022/06/17 08:45:31;;;;;;;5.07;2.80;;;;;;;;;;8493906;27;20055;-89
2022/06/17 08:49:49;;;;;;;3.78;2.58;;;;;;;;;;8475347;27;20047;-89
2022/06/17 08:54:11;;;;;;;2.92;2.20;;;;;;;;;;8473897;27;20043;-89
2022/06/17 08:58:25;;;;;;;3.97;2.22;;;;;;;;;;8481984;27;20051;-89
2022/06/17 09:02:40;;;;;;;3.25;2.03;;;;;;;;;;8494542;27;20047;-88
2022/06/17 09:06:56;;;;;;;4.53;2.40;;;;;;;;;;8493740;27;20039;-91
2022/06/17 09:11:09;;;;;;;4.53;2.55;;;;;;;;;;8490947;27;20047;-92
2022/06/17 09:15:22;;;;;;;3.22;2.35;;;;;;;;;;8493150;28;20039;-89
2022/06/17 09:19:29;;;;;;;4.53;2.60;;;;;;;;;;8489480;27;20386;-93
2022/06/17 09:23:38;;;;;;;5.50;2.40;;;;;;;;;;8498080;27;20062;-88
2022/06/17 09:27:47;;;;;;;3.40;2.35;;;;;;;;;;8498041;27;20051;-92
2022/06/17 09:31:56;;;;;;;5.15;2.40;;;;;;;;;;8499766;27;20046;-91
2022/06/17 09:36:04;;;;;;;9.90;4.10;;;;;;;;;;8492504;27;20096;-92
2022/06/17 09:40:15;;;;;;;5.70;2.97;;;;;;;;;;8485708;27;20036;-89
2022/06/17 09:44:21;;;;;;;3.50;2.53;;;;;;;;;;8491345;27;20050;-89
2022/06/17 09:48:30;;;;;;;5.15;2.67;;;;;;;;;;8499952;27;20452;-93
2022/06/17 09:52:39;;;;;;;6.15;2.47;;;;;;;;;;8494089;27;20042;-94
2022/06/17 09:56:48;;;;;;;2.97;2.35;;;;;;;;;;8494282;27;20130;-89
2022/06/17 10:00:55;;;;;;;3.85;2.50;;;;;;;;;;8501517;27;20459;-93
2022/06/17 10:04:59;;;;;;;3.80;2.55;;;;;;;;;;8496463;27;20122;-90
2022/06/17 10:09:18;;;;;;;5.60;2.72;;;;;;;;;;8478584;27;20415;-92
2022/06/17 10:13:31;;;;;;;4.03;2.85;;;;;;;;;;8474578;27;20051;-91
2022/06/17 10:22:26;;;;;;;3.63;2.80;;;;;;;;;;8481768;27;20048;-88
2022/06/17 10:26:39;;;;;;;6.45;3.00;;;;;;;;;;8491692;27;20055;-92
2022/06/17 10:30:53;;;;;;;23.77;6.35;;;;;;;;;;8499048;27;20043;-92
2022/06/17 10:34:59;;;;;;;6.07;3.13;;;;;;;;;;8489445;27;20047;-92
2022/06/17 10:39:04;;;;;;;4.32;2.80;;;;;;;;;;8485279;27;20122;-92
2022/06/17 10:43:11;;;;;;;3.60;2.13;;;;;;;;;;8485645;27;20046;-88
2022/06/17 10:47:29;;;;;;;5.13;2.42;;;;;;;;;;8484922;27;20078;-93
2022/06/17 10:51:36;;;;;;;6.32;2.63;;;;;;;;;;8486853;27;20043;-90
2022/06/17 10:55:43;;;;;;;2.53;1.95;;;;;;;;;;8502351;27;20039;-92
2022/06/17 10:59:48;;;;;;;5.15;2.45;;;;;;;;;;8502365;27;20471;-93
2022/06/17 11:04:12;;;;;;;4.70;2.20;;;;;;;;;;8482492;27;20043;-91
2022/06/17 11:08:24;;;;;;;5.75;2.20;;;;;;;;;;8493046;27;20065;-95
2022/06/17 11:12:38;;;;;;;6.05;1.90;;;;;;;;;;8499842;27;20578;-92
2022/06/17 11:16:43;;;;;;;4.10;1.88;;;;;;;;;;8483798;27;20074;-90
2022/06/17 11:20:57;;;;;;;4.28;1.95;;;;;;;;;;8500372;27;20443;-89
2022/06/17 11:25:06;;;;;;;3.72;1.73;;;;;;;;;;8500744;27;20125;-91
2022/06/17 11:29:22;;;;;;;3.13;1.35;;;;;;;;;;8494173;27;20047;-92
2022/06/17 11:33:27;;;;;;;4.70;1.67;;;;;;;;;;8496622;27;20043;-90
2022/06/17 11:37:35;;;;;;;1.48;1.23;;;;;;;;;;8500818;27;20054;-91
2022/06/17 11:41:38;;;;;;;1.77;1.40;;;;;;;;;;8495515;27;20403;-86
2022/06/17 11:45:45;;;;;;;1.13;1.13;;;;;;;;;;8507814;27;20491;-92
2022/06/17 11:49:49;;;;;;;3.20;1.23;;;;;;;;;;8498439;27;20398;-88
2022/06/17 11:53:56;;;;;;;1.63;1.27;;;;;;;;;;8493649;27;20040;-92
2022/06/17 11:58:02;;;;;;;4.50;1.15;;;;;;;;;;8493057;27;20058;-92
2022/06/17 12:02:10;;;;;;;1.58;1.08;;;;;;;;;;8500346;27;20548;-92
2022/06/17 12:06:26;;;;;;;2.65;1.23;;;;;;;;;;8488086;27;20035;-92
2022/06/17 12:10:41;;;;;;;7.32;1.77;;;;;;;;;;8495272;27;20474;-92
2022/06/17 12:14:51;;;;;;;1.27;1.15;;;;;;;;;;8497194;27;20486;-89
2022/06/17 12:18:56;;;;;;;3.80;1.48;;;;;;;;;;8499209;27;20439;-90
2022/06/17 12:23:08;;;;;;;5.72;1.40;;;;;;;;;;8492572;27;20043;-89
2022/06/17 12:27:23;;;;;;;2.83;1.35;;;;;;;;;;8477969;27;20429;-88
2022/06/17 12:31:37;;;;;;;3.13;1.80;;;;;;;;;;8483152;27;20039;-88
2022/06/17 12:35:45;;;;;;;7.88;1.90;;;;;;;;;;8471020;27;20031;-90
2022/06/17 12:40:01;;;;;;;3.33;1.30;;;;;;;;;;8464917;27;20062;-91
2022/06/17 12:44:18;;;;;;;4.95;1.52;;;;;;;;;;8462566;27;20051;-90
2022/06/17 12:48:29;;;;;;;1.58;1.38;;;;;;;;;;8454125;27;20046;-89
2022/06/17 12:57:06;;;;;;;2.42;1.30;;;;;;;;;;8473688;27;20482;-93
2022/06/17 13:01:20;;;;;;;4.50;1.40;;;;;;;;;;8469350;27;20047;-88
2022/06/17 13:05:28;;;;;;;3.13;1.40;;;;;;;;;;8485521;27;20050;-87
2022/06/17 13:09:41;;;;;;;1.52;1.20;;;;;;;;;;8473656;27;20050;-91
2022/06/17 13:14:03;;;;;;;5.45;1.77;;;;;;;;;;8480141;27;20479;-91
2022/06/17 13:18:14;;;;;;;3.83;1.60;;;;;;;;;;8481103;28;20500;-90
2022/06/17 13:22:27;;;;;;;3.50;1.45;;;;;;;;;;8488974;28;20043;-90
2022/06/17 13:26:39;;;;;;;2.03;1.30;;;;;;;;;;8471922;28;20059;-90
2022/06/17 13:30:46;;;;;;;1.33;1.17;;;;;;;;;;8490545;28;20135;-91
2022/06/17 13:34:57;;;;;;;2.63;1.40;;;;;;;;;;8477729;28;20605;-88
2022/06/17 13:39:08;;;;;;;3.17;1.35;;;;;;;;;;8481729;28;20575;-89
2022/06/17 13:43:15;;;;;;;;;;;;;;;;;;8469928;28;20398;-91
2022/06/17 13:47:29;;;;;;;3.13;1.48;;;;;;;;;;8478284;28;19923;-90
2022/06/17 13:51:45;;;;;;;4.72;1.92;;;;;;;;;;8474425;28;20043;-91
2022/06/17 13:55:59;;;;;;;5.25;1.67;;;;;;;;;;8477157;28;20414;-87
2022/06/17 14:00:38;;;;;;;25.42;6.55;;;;;;;;;;8484571;28;20070;-90
2022/06/17 14:05:10;;;;;;;1.67;1.50;;;;;;;;;;8486928;27;20056;-87
2022/06/17 14:09:28;;;;;;;4.20;1.75;;;;;;;;;;8484433;27;20130;-88
2022/06/17 14:13:35;;;;;;;6.00;2.05;;;;;;;;;;8498419;27;20051;-88
2022/06/17 14:17:48;;;;;;;4.35;1.85;;;;;;;;;;8469879;27;20039;-89
2022/06/17 14:21:56;;;;;;;6.28;2.00;;;;;;;;;;8468408;27;20052;-91
2022/06/17 14:26:02;;;;;;;10.30;2.17;;;;;;;;;;8489066;27;20081;-90
2022/06/17 14:30:37;;;;;;;8.70;1.90;;;;;;;;;;8477336;27;20085;-86
2022/06/17 14:35:02;;;;;;;4.35;1.70;;;;;;;;;;8494721;27;20053;-90
2022/06/17 14:39:18;;;;;;;3.92;1.63;;;;;;;;;;8485750;27;20048;-89
2022/06/17 14:43:31;;;;;;;3.92;1.77;;;;;;;;;;8481461;27;20733;-91
2022/06/17 14:48:08;;;;;;;3.75;2.50;;;;;;;;;;8494309;27;20138;-87
2022/06/17 14:52:26;;;;;;;2.67;2.30;;;;;;;;;;8491580;27;20406;-89
2022/06/17 14:56:41;;;;;;;3.17;1.50;;;;;;;;;;8487621;27;20078;-89
2022/06/17 15:00:51;;;;;;;6.65;2.50;;;;;;;;;;8479872;27;20050;-90
2022/06/17 15:04:58;;;;;;;5.10;1.90;;;;;;;;;;8472619;27;20047;-90
2022/06/17 15:09:01;;;;;;;4.40;2.00;;;;;;;;;;8480078;27;20039;-90
2022/06/17 15:17:44;;;;;;;5.03;1.95;;;;;;;;;;8474631;27;20048;-89
2022/06/17 15:21:53;;;;;;;7.07;2.53;;;;;;;;;;8491385;27;20541;-93
2022/06/17 15:26:08;;;;;;;4.43;2.10;;;;;;;;;;8489622;27;20039;-89
2022/06/17 15:30:39;;;;;;;5.15;2.03;;;;;;;;;;8472193;27;20118;-90
2022/06/17 15:34:47;;;;;;;7.22;2.38;;;;;;;;;;8466008;27;20070;-91
2022/06/17 15:38:57;;;;;;;6.07;3.70;;;;;;;;;;8479175;27;20039;-87
2022/06/17 15:43:15;;;;;;;6.38;3.88;;;;;;;;;;8478954;27;20043;-91
2022/06/17 15:47:29;;;;;;;5.90;2.60;;;;;;;;;;8476939;27;20051;-91
2022/06/17 15:51:51;;;;;;;7.55;2.10;;;;;;;;;;8465397;27;20491;-91
2022/06/17 15:56:18;;;;;;;5.60;2.20;;;;;;;;;;8474298;27;20124;-87
2022/06/17 16:05:19;;;;;;;6.30;2.87;;;;;;;;;;8478703;27;20086;-91
2022/06/17 16:09:59;;;;;;;4.65;2.30;;;;;;;;;;8475865;27;20044;-89
2022/06/17 16:14:32;;;;;;;7.13;2.60;;;;;;;;;;8480297;27;20074;-89
2022/06/17 16:18:46;;;;;;;5.07;2.50;;;;;;;;;;8482607;27;20046;-89
2022/06/17 16:22:57;;;;;;;2.47;1.80;;;;;;;;;;8459710;27;20047;-89
2022/06/17 16:27:15;;;;;;;4.68;2.15;;;;;;;;;;8479889;27;20051;-90
2022/06/17 16:31:26;;;;;;;5.25;2.20;;;;;;;;;;8477759;27;20058;-91
2022/06/17 16:35:39;;;;;;;7.53;3.28;;;;;;;;;;8482160;27;20093;-88
2022/06/17 16:39:44;;;;;;;3.60;1.90;;;;;;;;;;8475706;27;20043;-92
2022/06/17 16:44:00;;;;;;;5.20;2.22;;;;;;;;;;8479196;27;20051;-85
2022/06/17 16:48:10;;;;;;;4.60;2.25;;;;;;;;;;8482226;27;20051;-91
2022/06/17 16:52:16;;;;;;;9.52;2.95;;;;;;;;;;8492484;27;20053;-87
2022/06/17 16:56:25;;;;;;;6.55;2.30;;;;;;;;;;8472949;27;20051;-88
2022/06/17 17:00:33;;;;;;;3.63;2.38;;;;;;;;;;8486190;27;20108;-89
2022/06/17 17:04:36;;;;;;;6.88;2.42;;;;;;;;;;8477897;27;20047;-89
2022/06/17 17:08:39;;;;;;;4.90;2.50;;;;;;;;;;8491165;27;20039;-87
2022/06/17 17:12:43;;;;;;;5.60;2.17;;;;;;;;;;8476863;27;20047;-86
2022/06/17 17:16:47;;;;;;;4.47;2.25;;;;;;;;;;8492126;27;20051;-89
2022/06/17 17:20:57;;;;;;;11.90;2.90;;;;;;;;;;8477422;28;20039;-88
2022/06/17 17:25:09;;;;;;;8.60;3.10;;;;;;;;;;8480094;28;20592;-87
2022/06/17 17:29:14;;;;;;;7.70;3.22;;;;;;;;;;8484950;28;20058;-90
2022/06/17 17:33:19;;;;;;;7.32;2.95;;;;;;;;;;8472570;28;20122;-87
2022/06/17 17:37:22;;;;;;;7.43;3.58;;;;;;;;;;8483878;27;20047;-84
2022/06/17 17:41:29;;;;;;;7.22;3.15;;;;;;;;;;8497739;27;20454;-89
2022/06/17 17:45:36;;;;;;;5.18;2.58;;;;;;;;;;8485703;27;20510;-89
2022/06/17 17:49:43;;;;;;;6.53;2.78;;;;;;;;;;8476676;27;20085;-89
2022/06/17 17:53:48;;;;;;;4.22;2.50;;;;;;;;;;8493086;27;20091;-89
2022/06/17 17:57:52;;;;;;;4.35;2.53;;;;;;;;;;8489545;27;20566;-90
2022/06/17 18:01:59;;;;;;;6.97;3.22;;;;;;;;;;8476670;27;20047;-89
2022/06/17 18:06:31;;;;;;;5.75;2.28;;;;;;;;;;8485469;27;20035;-89
2022/06/17 18:10:44;;;;;;;8.57;2.65;;;;;;;;;;8492589;27;20051;-87
2022/06/17 18:14:49;;;;;;;5.25;2.50;;;;;;;;;;8496132;27;20039;-89
2022/06/17 18:19:23;;;;;;;4.55;2.60;;;;;;;;;;8499475;27;20538;-89
2022/06/17 18:23:51;;;;;;;5.53;2.78;;;;;;;;;;8475462;27;20035;-89
2022/06/17 18:28:00;;;;;;;5.07;2.33;;;;;;;;;;8461612;27;20642;-91
2022/06/17 18:38:05;;;;;;;6.72;2.95;;;;;;;;;;8469721;27;20048;-90
2022/06/17 18:46:56;;;;;;;11.07;4.35;;;;;;;;;;8501282;27;20525;-89
2022/06/17 18:51:21;;;;;;;12.02;4.70;;;;;;;;;;8501351;27;20039;-89
2022/06/17 18:55:30;;;;;;;9.05;5.15;;;;;;;;;;8495365;27;20088;-89
2022/06/17 18:59:34;;;;;;;8.52;4.60;;;;;;;;;;8491944;27;20103;-89
2022/06/17 19:03:40;;;;;;;8.75;4.00;;;;;;;;;;8499086;27;20046;-88
2022/06/17 19:21:03;;;;;;;8.57;3.92;;;;;;;;;;8489803;27;20114;-90
2022/06/17 19:25:15;;;;;;;5.75;3.58;;;;;;;;;;8498382;27;20126;-90
2022/06/17 19:29:25;;;;;;;9.00;4.32;;;;;;;;;;8497153;27;20076;-89
2022/06/17 19:33:35;;;;;;;9.80;4.55;;;;;;;;;;8498921;27;20043;-90
2022/06/17 19:37:41;;;;;;;7.07;3.70;;;;;;;;;;8495106;27;20119;-89
2022/06/17 19:41:51;;;;;;;8.75;4.97;;;;;;;;;;8495850;27;20039;-90
2022/06/17 19:45:55;;;;;;;9.88;5.47;;;;;;;;;;8500588;27;20479;-90
2022/06/17 19:49:59;;;;;;;7.00;3.72;;;;;;;;;;8489818;27;20068;-88
2022/06/17 19:54:03;;;;;;;7.28;3.88;;;;;;;;;;8499537;27;20380;-88
2022/06/17 19:58:11;;;;;;;10.13;5.53;;;;;;;;;;8499749;27;20074;-89
2022/06/17 20:02:21;;;;;;;9.57;5.40;;;;;;;;;;8497919;27;20495;-89
2022/06/17 20:06:26;;;;;;;12.77;5.93;;;;;;;;;;8499508;27;20043;-89
2022/06/17 20:10:30;;;;;;;8.52;3.75;;;;;;;;;;8499270;27;20402;-89
2022/06/17 20:14:36;;;;;;;10.45;5.18;;;;;;;;;;8484159;27;20043;-89
2022/06/17 20:18:40;;;;;;;6.60;3.80;;;;;;;;;;8499000;27;20441;-89
2022/06/17 20:22:45;;;;;;;7.30;4.10;;;;;;;;;;8498902;27;20067;-89
2022/06/17 20:26:48;;;;;;;8.02;4.20;;;;;;;;;;8498840;27;20098;-89
2022/06/17 20:30:51;;;;;;;7.30;4.85;;;;;;;;;;8495100;27;20051;-89
2022/06/17 20:34:55;;;;;;;8.15;4.30;;;;;;;;;;8498582;27;20050;-89
2022/06/17 20:38:59;;;;;;;8.43;4.32;;;;;;;;;;8498405;27;20074;-89
2022/06/17 20:43:02;;;;;;;8.27;4.25;;;;;;;;;;8497447;27;20039;-89
2022/06/17 20:51:32;;;;;;;6.85;3.83;;;;;;;;;;8498095;27;20043;-88
2022/06/17 20:55:39;;;;;;;5.30;3.95;;;;;;;;;;8497798;27;20134;-88
2022/06/17 20:59:42;;;;;;;6.57;4.18;;;;;;;;;;8470633;27;20547;-88
2022/06/17 21:03:45;;;;;;;9.45;4.40;;;;;;;;;;8495709;27;20058;-92
2022/06/17 21:07:51;;;;;;;7.57;4.28;;;;;;;;;;8490254;27;20043;-92
2022/06/17 21:12:24;;;;;;;7.00;4.13;;;;;;;;;;8485402;27;20047;-89
2022/06/17 21:16:29;;;;;;;7.35;4.00;;;;;;;;;;8472305;27;20044;-90
2022/06/17 21:20:34;;;;;;;7.90;4.00;;;;;;;;;;8480019;28;20047;-89
2022/06/17 21:24:52;;;;;;;9.32;4.32;;;;;;;;;;8488446;28;20043;-89
2022/06/17 21:29:16;;;;;;;9.52;4.25;;;;;;;;;;8489796;28;20113;-89
2022/06/17 21:33:26;;;;;;;8.48;4.68;;;;;;;;;;8480320;28;20495;-89
2022/06/17 21:37:35;;;;;;;6.93;3.95;;;;;;;;;;8480290;28;20043;-88
2022/06/17 21:41:46;;;;;;;6.15;4.50;;;;;;;;;;8476387;28;20047;-88
2022/06/17 21:45:52;;;;;;;8.98;4.40;;;;;;;;;;8492015;28;20039;-88
2022/06/17 21:49:56;;;;;;;8.45;4.10;;;;;;;;;;8496389;28;20407;-88
2022/06/17 21:54:12;;;;;;;5.82;4.20;;;;;;;;;;8496831;28;20467;-89
2022/06/17 21:58:27;;;;;;;6.78;4.45;;;;;;;;;;8494282;28;20042;-89
2022/06/17 22:02:59;;;;;;;6.60;3.97;;;;;;;;;;8495993;28;20046;-89
2022/06/17 22:07:13;;;;;;;6.78;4.55;;;;;;;;;;8489905;28;20047;-88
2022/06/17 22:16:02;;;;;;;7.45;4.63;;;;;;;;;;8405514;28;20090;-91
2022/06/17 22:20:11;;;;;;;8.07;3.90;;;;;;;;;;8482771;28;20501;-89
2022/06/17 22:24:17;;;;;;;8.25;4.72;;;;;;;;;;8496354;27;20043;-89
2022/06/17 22:28:20;;;;;;;8.93;4.75;;;;;;;;;;8499715;27;20472;-89
2022/06/17 22:32:26;;;;;;;18.25;6.80;;;;;;;;;;8496501;27;20043;-89
2022/06/17 22:36:30;;;;;;;9.73;4.80;;;;;;;;;;8491692;27;20039;-89
2022/06/17 22:40:34;;;;;;;9.38;4.50;;;;;;;;;;8476037;27;20044;-89
2022/06/17 22:44:37;;;;;;;7.00;4.82;;;;;;;;;;8488971;27;20047;-89
2022/06/17 22:48:44;;;;;;;5.80;4.32;;;;;;;;;;8497212;27;20119;-89
2022/06/17 22:52:49;;;;;;;7.97;4.80;;;;;;;;;;8487168;27;20039;-89
2022/06/17 22:56:52;;;;;;;9.15;4.75;;;;;;;;;;8501762;27;20402;-89
2022/06/17 23:00:56;;;;;;;8.65;4.93;;;;;;;;;;8500683;27;20140;-88
2022/06/17 23:05:06;;;;;;;9.18;5.05;;;;;;;;;;8481692;27;20039;-89
2022/06/17 23:09:14;;;;;;;7.40;5.03;;;;;;;;;;8500087;27;20045;-88
2022/06/17 23:13:21;;;;;;;9.10;4.65;;;;;;;;;;8484645;27;20411;-89
2022/06/17 23:17:27;;;;;;;8.95;5.13;;;;;;;;;;8485790;27;20047;-90
2022/06/17 23:25:59;;;;;;;9.00;5.65;;;;;;;;;;8489061;27;20049;-90
2022/06/17 23:30:02;;;;;;;7.50;4.75;;;;;;;;;;8488047;27;20059;-90
2022/06/17 23:34:06;;;;;;;8.48;4.75;;;;;;;;;;8494304;27;20104;-90
2022/06/17 23:38:12;;;;;;;9.02;4.80;;;;;;;;;;8498058;27;20042;-91
2022/06/17 23:42:17;;;;;;;10.35;4.70;;;;;;;;;;8488667;27;20039;-90
2022/06/17 23:46:25;;;;;;;7.65;4.68;;;;;;;;;;8496447;27;20110;-90
2022/06/17 23:50:31;;;;;;;7.57;4.70;;;;;;;;;;8471557;27;20058;-90
2022/06/17 23:54:38;;;;;;;9.10;4.93;;;;;;;;;;8483929;27;20470;-92
